sensor_id;sensor_type;location;lat;lon;timestamp;pressure;altitude;pressure_sealevel;temperature;humidity
63281;BME280;49406;51.044;3.766;2022-07-23T00:00:27;101992.84;;;15.27;89.04
63281;BME280;49406;51.044;3.766;2022-07-23T00:03:11;101989.48;;;15.23;89.10
63281;BME280;49406;51.044;3.766;2022-07-23T00:05:56;101991.90;;;15.15;89.53
63281;BME280;49406;51.044;3.766;2022-07-23T00:08:40;101989.45;;;15.20;89.41
63281;BME280;49406;51.044;3.766;2022-07-23T00:11:25;101988.77;;;15.23;89.09
63281;BME280;49406;51.044;3.766;2022-07-23T00:14:21;101988.73;;;15.17;89.04
63281;BME280;49406;51.044;3.766;2022-07-23T00:17:05;101985.46;;;15.05;89.73
63281;BME280;49406;51.044;3.766;2022-07-23T00:19:49;101986.63;;;14.96;89.99
63281;BME280;49406;51.044;3.766;2022-07-23T00:22:36;101986.13;;;14.99;89.84
63281;BME280;49406;51.044;3.766;2022-07-23T00:25:24;101986.30;;;14.97;89.93
63281;BME280;49406;51.044;3.766;2022-07-23T00:28:09;101986.75;;;14.92;90.17
63281;BME280;49406;51.044;3.766;2022-07-23T00:30:53;101986.69;;;14.83;90.49
63281;BME280;49406;51.044;3.766;2022-07-23T00:33:40;101985.19;;;14.73;91.27
63281;BME280;49406;51.044;3.766;2022-07-23T00:36:24;101984.02;;;14.79;91.35
63281;BME280;49406;51.044;3.766;2022-07-23T00:39:09;101981.39;;;14.81;91.08
63281;BME280;49406;51.044;3.766;2022-07-23T00:41:53;101978.68;;;14.74;90.75
63281;BME280;49406;51.044;3.766;2022-07-23T00:44:38;101978.05;;;14.62;91.22
63281;BME280;49406;51.044;3.766;2022-07-23T00:47:22;101976.02;;;14.52;91.75
63281;BME280;49406;51.044;3.766;2022-07-23T00:50:09;101975.64;;;14.49;91.98
63281;BME280;49406;51.044;3.766;2022-07-23T00:52:54;101970.89;;;14.49;91.64
63281;BME280;49406;51.044;3.766;2022-07-23T00:55:39;101971.19;;;14.45;91.92
63281;BME280;49406;51.044;3.766;2022-07-23T00:58:23;101970.23;;;14.41;92.44
63281;BME280;49406;51.044;3.766;2022-07-23T01:01:08;101966.11;;;14.34;92.81
63281;BME280;49406;51.044;3.766;2022-07-23T01:03:52;101968.33;;;14.27;93.17
63281;BME280;49406;51.044;3.766;2022-07-23T01:06:38;101955.14;;;14.28;93.43
63281;BME280;49406;51.044;3.766;2022-07-23T01:09:23;101954.29;;;14.30;92.95
63281;BME280;49406;51.044;3.766;2022-07-23T01:12:08;101952.80;;;14.24;93.11
63281;BME280;49406;51.044;3.766;2022-07-23T01:14:56;101955.05;;;14.19;93.46
63281;BME280;49406;51.044;3.766;2022-07-23T01:17:44;101953.09;;;14.16;93.80
63281;BME280;49406;51.044;3.766;2022-07-23T01:20:28;101955.13;;;14.10;94.53
63281;BME280;49406;51.044;3.766;2022-07-23T01:23:13;101955.23;;;14.06;94.92
63281;BME280;49406;51.044;3.766;2022-07-23T01:25:57;101957.45;;;14.13;95.04
63281;BME280;49406;51.044;3.766;2022-07-23T01:28:44;101958.55;;;14.18;94.46
63281;BME280;49406;51.044;3.766;2022-07-23T01:31:29;101955.91;;;14.17;94.54
63281;BME280;49406;51.044;3.766;2022-07-23T01:34:13;101958.19;;;14.16;94.54
63281;BME280;49406;51.044;3.766;2022-07-23T01:36:58;101955.98;;;14.09;94.87
63281;BME280;49406;51.044;3.766;2022-07-23T01:39:43;101954.52;;;14.02;95.03
63281;BME280;49406;51.044;3.766;2022-07-23T01:42:27;101950.64;;;14.02;95.05
63281;BME280;49406;51.044;3.766;2022-07-23T01:45:12;101952.45;;;14.09;94.85
63281;BME280;49406;51.044;3.766;2022-07-23T01:47:57;101953.15;;;14.07;94.90
63281;BME280;49406;51.044;3.766;2022-07-23T01:50:41;101956.11;;;14.04;94.84
63281;BME280;49406;51.044;3.766;2022-07-23T01:53:25;101954.60;;;13.95;95.30
63281;BME280;49406;51.044;3.766;2022-07-23T01:56:10;101956.80;;;13.89;95.54
63281;BME280;49406;51.044;3.766;2022-07-23T01:58:54;101958.80;;;13.94;95.32
63281;BME280;49406;51.044;3.766;2022-07-23T02:01:38;101959.48;;;13.93;94.97
63281;BME280;49406;51.044;3.766;2022-07-23T02:04:24;101959.61;;;13.89;95.09
63281;BME280;49406;51.044;3.766;2022-07-23T02:07:09;101967.11;;;13.83;95.53
63281;BME280;49406;51.044;3.766;2022-07-23T02:09:53;101966.62;;;13.74;95.92
63281;BME280;49406;51.044;3.766;2022-07-23T02:12:37;101967.30;;;13.72;95.95
63281;BME280;49406;51.044;3.766;2022-07-23T02:15:22;101967.33;;;13.74;95.49
63281;BME280;49406;51.044;3.766;2022-07-23T02:18:06;101965.16;;;13.70;95.89
63281;BME280;49406;51.044;3.766;2022-07-23T02:20:51;101963.55;;;13.66;96.01
63281;BME280;49406;51.044;3.766;2022-07-23T02:23:39;101963.65;;;13.61;96.34
63281;BME280;49406;51.044;3.766;2022-07-23T02:26:23;101960.55;;;13.52;96.85
63281;BME280;49406;51.044;3.766;2022-07-23T02:29:07;101958.42;;;13.51;97.11
63281;BME280;49406;51.044;3.766;2022-07-23T02:31:52;101965.02;;;13.59;96.66
63281;BME280;49406;51.044;3.766;2022-07-23T02:34:39;101963.22;;;13.56;96.72
63281;BME280;49406;51.044;3.766;2022-07-23T02:37:24;101964.57;;;13.51;96.99
63281;BME280;49406;51.044;3.766;2022-07-23T02:40:09;101967.63;;;13.43;97.70
63281;BME280;49406;51.044;3.766;2022-07-23T02:42:54;101974.67;;;13.45;97.80
63281;BME280;49406;51.044;3.766;2022-07-23T02:45:39;101972.81;;;13.50;97.18
63281;BME280;49406;51.044;3.766;2022-07-23T02:48:24;101976.11;;;13.46;97.07
63281;BME280;49406;51.044;3.766;2022-07-23T02:51:09;101974.83;;;13.44;97.37
63281;BME280;49406;51.044;3.766;2022-07-23T02:53:54;101979.97;;;13.35;98.00
63281;BME280;49406;51.044;3.766;2022-07-23T02:56:40;101983.58;;;13.29;98.10
63281;BME280;49406;51.044;3.766;2022-07-23T02:59:24;101985.73;;;13.33;97.66
63281;BME280;49406;51.044;3.766;2022-07-23T03:02:09;101985.90;;;13.32;97.64
63281;BME280;49406;51.044;3.766;2022-07-23T03:04:53;101988.30;;;13.28;97.70
63281;BME280;49406;51.044;3.766;2022-07-23T03:07:39;101993.95;;;13.19;98.17
63281;BME280;49406;51.044;3.766;2022-07-23T03:10:21;101997.68;;;13.13;99.03
63281;BME280;49406;51.044;3.766;2022-07-23T03:13:06;101996.42;;;13.11;98.81
63281;BME280;49406;51.044;3.766;2022-07-23T03:15:52;102001.02;;;13.13;98.18
63281;BME280;49406;51.044;3.766;2022-07-23T03:18:39;102007.80;;;13.10;98.25
63281;BME280;49406;51.044;3.766;2022-07-23T03:21:24;102012.84;;;13.07;98.63
63281;BME280;49406;51.044;3.766;2022-07-23T03:24:09;102017.13;;;12.99;99.39
63281;BME280;49406;51.044;3.766;2022-07-23T03:26:54;102017.23;;;12.94;99.96
63281;BME280;49406;51.044;3.766;2022-07-23T03:29:38;102015.40;;;13.02;99.50
63281;BME280;49406;51.044;3.766;2022-07-23T03:32:23;102011.73;;;13.03;99.24
63281;BME280;49406;51.044;3.766;2022-07-23T03:35:09;102006.79;;;13.01;99.20
63281;BME280;49406;51.044;3.766;2022-07-23T03:37:54;102009.13;;;12.94;99.26
63281;BME280;49406;51.044;3.766;2022-07-23T03:40:38;102011.80;;;12.86;99.92
63281;BME280;49406;51.044;3.766;2022-07-23T03:43:22;102015.83;;;12.86;100.00
63281;BME280;49406;51.044;3.766;2022-07-23T03:46:08;102009.95;;;12.92;99.94
63281;BME280;49406;51.044;3.766;2022-07-23T03:48:53;102007.13;;;12.90;99.78
63281;BME280;49406;51.044;3.766;2022-07-23T03:51:37;102007.28;;;12.88;99.98
63281;BME280;49406;51.044;3.766;2022-07-23T03:54:22;102009.51;;;12.85;100.00
63281;BME280;49406;51.044;3.766;2022-07-23T03:57:08;102017.16;;;12.81;100.00
63281;BME280;49406;51.044;3.766;2022-07-23T03:59:52;102016.34;;;12.85;100.00
63281;BME280;49406;51.044;3.766;2022-07-23T04:02:37;102020.83;;;12.91;100.00
63281;BME280;49406;51.044;3.766;2022-07-23T04:05:21;102022.79;;;12.92;100.00
63281;BME280;49406;51.044;3.766;2022-07-23T04:08:06;102025.76;;;12.92;100.00
63281;BME280;49406;51.044;3.766;2022-07-23T04:10:50;102025.83;;;12.85;100.00
63281;BME280;49406;51.044;3.766;2022-07-23T04:13:35;102028.08;;;12.83;100.00
63281;BME280;49406;51.044;3.766;2022-07-23T04:16:19;102030.27;;;12.89;100.00
63281;BME280;49406;51.044;3.766;2022-07-23T04:19:03;102028.71;;;12.91;100.00
63281;BME280;49406;51.044;3.766;2022-07-23T04:21:48;102029.09;;;12.92;100.00
63281;BME280;49406;51.044;3.766;2022-07-23T04:24:32;102027.83;;;12.89;100.00
63281;BME280;49406;51.044;3.766;2022-07-23T04:27:17;102031.64;;;12.87;100.00
63281;BME280;49406;51.044;3.766;2022-07-23T04:30:01;102034.77;;;12.95;100.00
63281;BME280;49406;51.044;3.766;2022-07-23T04:32:45;102034.73;;;13.03;100.00
63281;BME280;49406;51.044;3.766;2022-07-23T04:35:30;102039.59;;;13.09;100.00
63281;BME280;49406;51.044;3.766;2022-07-23T04:38:14;102033.34;;;13.13;100.00
63281;BME280;49406;51.044;3.766;2022-07-23T04:40:58;102033.90;;;13.15;100.00
63281;BME280;49406;51.044;3.766;2022-07-23T04:43:43;102027.23;;;13.24;100.00
63281;BME280;49406;51.044;3.766;2022-07-23T04:46:28;102027.91;;;13.34;100.00
63281;BME280;49406;51.044;3.766;2022-07-23T04:49:12;102029.58;;;13.41;100.00
63281;BME280;49406;51.044;3.766;2022-07-23T04:51:56;102027.75;;;13.46;100.00
63281;BME280;49406;51.044;3.766;2022-07-23T04:54:43;102021.33;;;13.51;100.00
63281;BME280;49406;51.044;3.766;2022-07-23T04:57:30;102023.77;;;13.64;100.00
63281;BME280;49406;51.044;3.766;2022-07-23T05:00:15;102026.30;;;13.80;100.00
63281;BME280;49406;51.044;3.766;2022-07-23T05:02:59;102029.39;;;13.88;100.00
63281;BME280;49406;51.044;3.766;2022-07-23T05:05:43;102032.60;;;13.92;100.00
63281;BME280;49406;51.044;3.766;2022-07-23T05:08:28;102027.42;;;13.97;100.00
63281;BME280;49406;51.044;3.766;2022-07-23T05:11:12;102023.92;;;14.14;99.61
63281;BME280;49406;51.044;3.766;2022-07-23T05:14:01;102021.44;;;14.27;99.01
63281;BME280;49406;51.044;3.766;2022-07-23T05:16:45;102025.76;;;14.35;99.32
63281;BME280;49406;51.044;3.766;2022-07-23T05:19:33;102031.80;;;14.39;99.33
63281;BME280;49406;51.044;3.766;2022-07-23T05:22:18;102034.76;;;14.49;99.09
63281;BME280;49406;51.044;3.766;2022-07-23T05:25:05;102038.61;;;14.64;98.45
63281;BME280;49406;51.044;3.766;2022-07-23T05:27:50;102037.97;;;14.88;97.77
63281;BME280;49406;51.044;3.766;2022-07-23T05:30:37;102036.54;;;15.05;97.27
63281;BME280;49406;51.044;3.766;2022-07-23T05:33:21;102046.02;;;15.21;97.26
63281;BME280;49406;51.044;3.766;2022-07-23T05:36:06;102051.70;;;15.73;97.67
63281;BME280;49406;51.044;3.766;2022-07-23T05:38:51;102049.23;;;16.47;96.10
63281;BME280;49406;51.044;3.766;2022-07-23T05:41:35;102054.14;;;17.31;93.34
63281;BME280;49406;51.044;3.766;2022-07-23T05:44:22;102051.96;;;17.89;90.52
63281;BME280;49406;51.044;3.766;2022-07-23T05:47:07;102041.86;;;18.38;88.36
63281;BME280;49406;51.044;3.766;2022-07-23T05:49:51;102039.63;;;18.89;86.14
63281;BME280;49406;51.044;3.766;2022-07-23T05:52:36;102038.14;;;19.21;83.94
63281;BME280;49406;51.044;3.766;2022-07-23T05:55:22;102034.49;;;19.53;80.82
63281;BME280;49406;51.044;3.766;2022-07-23T05:58:06;102030.38;;;19.57;76.71
63281;BME280;49406;51.044;3.766;2022-07-23T06:00:51;102034.70;;;19.50;78.48
63281;BME280;49406;51.044;3.766;2022-07-23T06:03:36;102039.88;;;19.43;78.79
63281;BME280;49406;51.044;3.766;2022-07-23T06:06:21;102042.26;;;19.17;77.28
63281;BME280;49406;51.044;3.766;2022-07-23T06:09:10;102041.47;;;18.79;78.23
63281;BME280;49406;51.044;3.766;2022-07-23T06:11:56;102038.20;;;18.64;78.67
63281;BME280;49406;51.044;3.766;2022-07-23T06:14:40;102042.23;;;18.71;79.36
63281;BME280;49406;51.044;3.766;2022-07-23T06:17:26;102040.05;;;19.04;79.09
63281;BME280;49406;51.044;3.766;2022-07-23T06:20:12;102046.98;;;19.41;76.45
63281;BME280;49406;51.044;3.766;2022-07-23T06:22:59;102043.57;;;19.47;76.59
63281;BME280;49406;51.044;3.766;2022-07-23T06:25:44;102045.60;;;19.60;76.45
63281;BME280;49406;51.044;3.766;2022-07-23T06:28:29;102038.92;;;19.72;76.06
63281;BME280;49406;51.044;3.766;2022-07-23T06:31:13;102035.38;;;19.88;75.68
63281;BME280;49406;51.044;3.766;2022-07-23T06:34:02;102038.66;;;20.24;75.38
63281;BME280;49406;51.044;3.766;2022-07-23T06:36:47;102045.80;;;20.75;73.85
63281;BME280;49406;51.044;3.766;2022-07-23T06:39:31;102050.39;;;20.65;71.10
63281;BME280;49406;51.044;3.766;2022-07-23T06:42:15;102046.98;;;20.55;71.87
63281;BME280;49406;51.044;3.766;2022-07-23T06:45:00;102042.99;;;20.48;71.76
63281;BME280;49406;51.044;3.766;2022-07-23T06:47:44;102046.33;;;20.36;71.39
63281;BME280;49406;51.044;3.766;2022-07-23T06:50:29;102054.89;;;20.33;72.00
63281;BME280;49406;51.044;3.766;2022-07-23T06:53:13;102050.48;;;20.70;71.64
63281;BME280;49406;51.044;3.766;2022-07-23T06:55:58;102049.76;;;21.18;70.50
63281;BME280;49406;51.044;3.766;2022-07-23T06:58:42;102048.77;;;21.65;68.78
63281;BME280;49406;51.044;3.766;2022-07-23T07:01:26;102051.84;;;21.80;67.61
63281;BME280;49406;51.044;3.766;2022-07-23T07:04:11;102050.52;;;21.85;67.16
63281;BME280;49406;51.044;3.766;2022-07-23T07:06:55;102052.03;;;21.98;66.67
63281;BME280;49406;51.044;3.766;2022-07-23T07:09:39;102055.41;;;22.09;65.21
63281;BME280;49406;51.044;3.766;2022-07-23T07:12:24;102057.52;;;22.19;63.36
63281;BME280;49406;51.044;3.766;2022-07-23T07:15:09;102059.20;;;22.24;64.00
63281;BME280;49406;51.044;3.766;2022-07-23T07:17:54;102060.96;;;22.58;62.63
63281;BME280;49406;51.044;3.766;2022-07-23T07:20:38;102062.58;;;22.72;62.10
63281;BME280;49406;51.044;3.766;2022-07-23T07:23:23;102062.30;;;22.94;61.91
63281;BME280;49406;51.044;3.766;2022-07-23T07:26:07;102064.87;;;23.26;61.44
63281;BME280;49406;51.044;3.766;2022-07-23T07:28:52;102071.95;;;23.36;59.78
63281;BME280;49406;51.044;3.766;2022-07-23T07:31:36;102076.34;;;23.53;60.26
63281;BME280;49406;51.044;3.766;2022-07-23T07:34:20;102076.63;;;23.89;60.00
63281;BME280;49406;51.044;3.766;2022-07-23T07:37:05;102078.35;;;24.16;57.19
63281;BME280;49406;51.044;3.766;2022-07-23T07:39:49;102082.05;;;24.00;56.71
63281;BME280;49406;51.044;3.766;2022-07-23T07:42:33;102081.01;;;23.98;57.14
63281;BME280;49406;51.044;3.766;2022-07-23T07:45:19;102081.86;;;24.18;57.48
63281;BME280;49406;51.044;3.766;2022-07-23T07:48:04;102083.32;;;24.43;55.84
63281;BME280;49406;51.044;3.766;2022-07-23T07:50:49;102083.71;;;24.76;54.90
63281;BME280;49406;51.044;3.766;2022-07-23T07:53:33;102087.60;;;24.95;54.49
63281;BME280;49406;51.044;3.766;2022-07-23T07:56:17;102086.30;;;25.09;53.01
63281;BME280;49406;51.044;3.766;2022-07-23T07:59:02;102086.44;;;25.09;53.42
63281;BME280;49406;51.044;3.766;2022-07-23T08:01:47;102085.19;;;25.14;52.17
63281;BME280;49406;51.044;3.766;2022-07-23T08:04:29;102078.92;;;25.15;52.44
63281;BME280;49406;51.044;3.766;2022-07-23T08:07:14;102081.90;;;25.33;52.79
63281;BME280;49406;51.044;3.766;2022-07-23T08:09:58;102087.08;;;25.34;51.62
63281;BME280;49406;51.044;3.766;2022-07-23T08:12:45;102082.55;;;24.96;51.79
63281;BME280;49406;51.044;3.766;2022-07-23T08:15:31;102081.48;;;24.97;52.79
63281;BME280;49406;51.044;3.766;2022-07-23T08:18:15;102079.83;;;25.10;52.78
63281;BME280;49406;51.044;3.766;2022-07-23T08:21:00;102082.47;;;25.21;52.30
63281;BME280;49406;51.044;3.766;2022-07-23T08:23:44;102089.17;;;25.35;51.88
63281;BME280;49406;51.044;3.766;2022-07-23T08:26:29;102086.23;;;25.37;51.28
63281;BME280;49406;51.044;3.766;2022-07-23T08:29:13;102084.27;;;25.47;49.94
63281;BME280;49406;51.044;3.766;2022-07-23T08:31:58;102078.48;;;25.18;48.41
63281;BME280;49406;51.044;3.766;2022-07-23T08:34:42;102083.57;;;25.10;49.80
63281;BME280;49406;51.044;3.766;2022-07-23T08:37:26;102087.34;;;25.31;50.51
63281;BME280;49406;51.044;3.766;2022-07-23T08:40:14;102087.59;;;25.55;49.97
63281;BME280;49406;51.044;3.766;2022-07-23T08:42:59;102091.29;;;26.03;49.09
63281;BME280;49406;51.044;3.766;2022-07-23T08:45:47;102085.25;;;26.63;47.40
63281;BME280;49406;51.044;3.766;2022-07-23T08:48:33;102092.80;;;26.94;45.97
63281;BME280;49406;51.044;3.766;2022-07-23T08:51:18;102097.48;;;27.29;45.77
63281;BME280;49406;51.044;3.766;2022-07-23T08:54:05;102096.90;;;27.43;44.04
63281;BME280;49406;51.044;3.766;2022-07-23T08:56:49;102095.33;;;27.50;43.13
63281;BME280;49406;51.044;3.766;2022-07-23T08:59:34;102098.17;;;27.39;42.77
63281;BME280;49406;51.044;3.766;2022-07-23T09:02:18;102095.06;;;27.27;42.45
63281;BME280;49406;51.044;3.766;2022-07-23T09:05:03;102092.71;;;26.92;42.74
63281;BME280;49406;51.044;3.766;2022-07-23T09:08:08;102083.94;;;26.69;42.20
63281;BME280;49406;51.044;3.766;2022-07-23T09:10:56;102078.55;;;26.79;41.94
63281;BME280;49406;51.044;3.766;2022-07-23T09:13:42;102080.48;;;26.88;41.45
63281;BME280;49406;51.044;3.766;2022-07-23T09:16:30;102082.10;;;26.97;41.46
63281;BME280;49406;51.044;3.766;2022-07-23T09:19:28;102082.52;;;27.10;42.09
63281;BME280;49406;51.044;3.766;2022-07-23T09:22:21;102084.54;;;27.17;41.72
63281;BME280;49406;51.044;3.766;2022-07-23T09:25:09;102087.18;;;27.22;41.30
63281;BME280;49406;51.044;3.766;2022-07-23T09:27:55;102092.48;;;27.42;41.10
63281;BME280;49406;51.044;3.766;2022-07-23T09:30:45;102092.32;;;27.58;40.45
63281;BME280;49406;51.044;3.766;2022-07-23T09:33:32;102094.15;;;27.61;39.08
63281;BME280;49406;51.044;3.766;2022-07-23T09:36:17;102095.92;;;27.32;38.72
63281;BME280;49406;51.044;3.766;2022-07-23T09:39:11;102094.49;;;27.02;39.34
63281;BME280;49406;51.044;3.766;2022-07-23T09:41:56;102091.66;;;27.01;40.23
63281;BME280;49406;51.044;3.766;2022-07-23T09:44:44;102091.63;;;27.11;39.41
63281;BME280;49406;51.044;3.766;2022-07-23T09:47:30;102089.86;;;27.40;39.61
63281;BME280;49406;51.044;3.766;2022-07-23T09:50:15;102099.94;;;27.73;39.29
63281;BME280;49406;51.044;3.766;2022-07-23T09:53:04;102102.57;;;27.54;38.16
63281;BME280;49406;51.044;3.766;2022-07-23T09:55:48;102103.35;;;27.18;39.05
63281;BME280;49406;51.044;3.766;2022-07-23T09:58:33;102100.85;;;27.13;39.34
63281;BME280;49406;51.044;3.766;2022-07-23T10:01:28;102105.45;;;27.10;39.66
63281;BME280;49406;51.044;3.766;2022-07-23T10:04:12;102105.56;;;27.21;39.95
63281;BME280;49406;51.044;3.766;2022-07-23T10:06:57;102110.29;;;27.45;40.51
63281;BME280;49406;51.044;3.766;2022-07-23T10:09:42;102112.20;;;27.84;40.16
63281;BME280;49406;51.044;3.766;2022-07-23T10:12:27;102105.13;;;27.94;38.43
63281;BME280;49406;51.044;3.766;2022-07-23T10:15:29;102103.11;;;28.06;38.75
63281;BME280;49406;51.044;3.766;2022-07-23T10:18:13;102103.38;;;28.48;38.07
63281;BME280;49406;51.044;3.766;2022-07-23T10:20:58;102101.20;;;28.67;37.42
63281;BME280;49406;51.044;3.766;2022-07-23T10:24:01;102099.00;;;28.72;36.93
63281;BME280;49406;51.044;3.766;2022-07-23T10:26:53;102096.19;;;28.71;35.62
63281;BME280;49406;51.044;3.766;2022-07-23T10:29:49;102092.98;;;28.32;36.69
63281;BME280;49406;51.044;3.766;2022-07-23T10:32:43;102088.61;;;28.22;36.75
63281;BME280;49406;51.044;3.766;2022-07-23T10:35:36;102085.85;;;28.11;35.93
63281;BME280;49406;51.044;3.766;2022-07-23T10:38:23;102084.52;;;28.09;35.36
63281;BME280;49406;51.044;3.766;2022-07-23T10:41:08;102086.40;;;28.18;35.27
63281;BME280;49406;51.044;3.766;2022-07-23T10:44:07;102083.95;;;28.33;35.44
63281;BME280;49406;51.044;3.766;2022-07-23T10:47:01;102085.95;;;28.36;35.22
63281;BME280;49406;51.044;3.766;2022-07-23T10:50:23;102080.70;;;28.64;34.46
63281;BME280;49406;51.044;3.766;2022-07-23T10:53:17;102080.64;;;28.72;34.77
63281;BME280;49406;51.044;3.766;2022-07-23T10:56:02;102079.67;;;28.66;34.14
63281;BME280;49406;51.044;3.766;2022-07-23T10:58:50;102077.96;;;28.65;34.53
63281;BME280;49406;51.044;3.766;2022-07-23T11:01:38;102076.25;;;28.66;34.60
63281;BME280;49406;51.044;3.766;2022-07-23T11:04:52;102081.27;;;28.86;34.62
63281;BME280;49406;51.044;3.766;2022-07-23T11:07:36;102078.02;;;29.22;34.36
63281;BME280;49406;51.044;3.766;2022-07-23T11:10:34;102082.22;;;29.53;33.98
63281;BME280;49406;51.044;3.766;2022-07-23T11:13:33;102077.33;;;29.71;34.16
63281;BME280;49406;51.044;3.766;2022-07-23T11:16:25;102074.56;;;29.40;34.71
63281;BME280;49406;51.044;3.766;2022-07-23T11:19:09;102077.46;;;29.44;34.18
63281;BME280;49406;51.044;3.766;2022-07-23T11:21:54;102071.55;;;29.60;34.25
63281;BME280;49406;51.044;3.766;2022-07-23T11:24:51;102070.20;;;29.62;33.78
63281;BME280;49406;51.044;3.766;2022-07-23T11:27:40;102063.72;;;29.52;34.16
63281;BME280;49406;51.044;3.766;2022-07-23T11:30:39;102064.46;;;29.65;33.98
63281;BME280;49406;51.044;3.766;2022-07-23T11:33:23;102060.96;;;29.46;33.87
63281;BME280;49406;51.044;3.766;2022-07-23T11:36:11;102055.10;;;29.30;33.61
63281;BME280;49406;51.044;3.766;2022-07-23T11:38:56;102054.38;;;29.44;34.15
63281;BME280;49406;51.044;3.766;2022-07-23T11:41:46;102060.70;;;29.55;32.92
63281;BME280;49406;51.044;3.766;2022-07-23T11:44:32;102058.41;;;29.50;33.34
63281;BME280;49406;51.044;3.766;2022-07-23T11:47:23;102060.90;;;29.64;33.71
63281;BME280;49406;51.044;3.766;2022-07-23T11:50:08;102056.78;;;30.08;32.84
63281;BME280;49406;51.044;3.766;2022-07-23T11:52:53;102053.08;;;30.27;31.60
63281;BME280;49406;51.044;3.766;2022-07-23T11:55:36;102047.92;;;30.34;31.84
63281;BME280;49406;51.044;3.766;2022-07-23T11:58:20;102043.20;;;30.54;31.84
63281;BME280;49406;51.044;3.766;2022-07-23T12:01:05;102042.37;;;30.72;31.50
63281;BME280;49406;51.044;3.766;2022-07-23T12:03:52;102040.89;;;30.37;30.69
63281;BME280;49406;51.044;3.766;2022-07-23T12:06:40;102039.14;;;29.90;32.10
63281;BME280;49406;51.044;3.766;2022-07-23T12:09:24;102035.91;;;29.84;33.40
63281;BME280;49406;51.044;3.766;2022-07-23T12:12:09;102034.97;;;29.74;32.51
63281;BME280;49406;51.044;3.766;2022-07-23T12:14:56;102038.35;;;29.61;33.14
63281;BME280;49406;51.044;3.766;2022-07-23T12:17:42;102041.54;;;29.56;33.47
63281;BME280;49406;51.044;3.766;2022-07-23T12:20:29;102042.71;;;29.64;32.74
63281;BME280;49406;51.044;3.766;2022-07-23T12:23:16;102042.53;;;29.68;33.01
63281;BME280;49406;51.044;3.766;2022-07-23T12:26:02;102038.88;;;29.92;32.19
63281;BME280;49406;51.044;3.766;2022-07-23T12:28:53;102034.81;;;29.64;32.57
63281;BME280;49406;51.044;3.766;2022-07-23T12:31:36;102030.13;;;29.67;33.27
63281;BME280;49406;51.044;3.766;2022-07-23T12:34:20;102031.76;;;29.67;32.56
63281;BME280;49406;51.044;3.766;2022-07-23T12:37:05;102031.67;;;29.48;33.06
63281;BME280;49406;51.044;3.766;2022-07-23T12:39:49;102036.02;;;29.68;33.70
63281;BME280;49406;51.044;3.766;2022-07-23T12:42:43;102037.08;;;30.02;34.03
63281;BME280;49406;51.044;3.766;2022-07-23T12:45:41;102030.84;;;30.21;32.60
63281;BME280;49406;51.044;3.766;2022-07-23T12:48:29;102027.29;;;30.16;32.82
63281;BME280;49406;51.044;3.766;2022-07-23T12:51:18;102022.46;;;30.15;32.34
63281;BME280;49406;51.044;3.766;2022-07-23T12:54:06;102022.57;;;29.63;31.84
63281;BME280;49406;51.044;3.766;2022-07-23T12:56:52;102019.07;;;29.40;32.67
63281;BME280;49406;51.044;3.766;2022-07-23T12:59:36;102015.27;;;29.55;32.96
63281;BME280;49406;51.044;3.766;2022-07-23T13:02:21;102014.48;;;30.00;32.73
63281;BME280;49406;51.044;3.766;2022-07-23T13:05:06;102014.55;;;30.21;32.78
63281;BME280;49406;51.044;3.766;2022-07-23T13:07:50;102011.64;;;30.18;32.93
63281;BME280;49406;51.044;3.766;2022-07-23T13:10:35;102013.73;;;30.01;32.16
63281;BME280;49406;51.044;3.766;2022-07-23T13:13:21;102011.60;;;29.99;32.63
63281;BME280;49406;51.044;3.766;2022-07-23T13:16:07;102010.40;;;29.98;32.35
63281;BME280;49406;51.044;3.766;2022-07-23T13:18:51;102009.20;;;30.14;32.33
63281;BME280;49406;51.044;3.766;2022-07-23T13:21:36;102015.23;;;30.16;33.05
63281;BME280;49406;51.044;3.766;2022-07-23T13:24:21;102016.61;;;30.14;33.61
63281;BME280;49406;51.044;3.766;2022-07-23T13:27:06;102018.27;;;30.26;32.77
63281;BME280;49406;51.044;3.766;2022-07-23T13:29:51;102011.39;;;30.59;32.48
63281;BME280;49406;51.044;3.766;2022-07-23T13:32:35;102006.69;;;30.93;31.82
63281;BME280;49406;51.044;3.766;2022-07-23T13:35:20;102003.11;;;31.10;31.40
63281;BME280;49406;51.044;3.766;2022-07-23T13:38:05;101997.75;;;31.25;31.83
63281;BME280;49406;51.044;3.766;2022-07-23T13:40:53;101993.56;;;31.37;31.27
63281;BME280;49406;51.044;3.766;2022-07-23T13:43:37;101992.39;;;31.17;31.46
63281;BME280;49406;51.044;3.766;2022-07-23T13:46:21;101985.98;;;31.10;31.74
63281;BME280;49406;51.044;3.766;2022-07-23T13:49:06;101983.29;;;31.07;32.26
63281;BME280;49406;51.044;3.766;2022-07-23T13:51:50;101981.74;;;31.05;32.19
63281;BME280;49406;51.044;3.766;2022-07-23T13:54:35;101974.63;;;30.76;31.28
63281;BME280;49406;51.044;3.766;2022-07-23T13:57:20;101970.52;;;30.53;31.92
63281;BME280;49406;51.044;3.766;2022-07-23T14:00:06;101972.85;;;30.38;32.44
63281;BME280;49406;51.044;3.766;2022-07-23T14:02:51;101974.46;;;30.23;33.09
63281;BME280;49406;51.044;3.766;2022-07-23T14:05:36;101975.56;;;29.96;33.16
63281;BME280;49406;51.044;3.766;2022-07-23T14:08:20;101980.99;;;29.66;33.75
63281;BME280;49406;51.044;3.766;2022-07-23T14:11:05;101978.84;;;29.56;33.75
63281;BME280;49406;51.044;3.766;2022-07-23T14:13:49;101979.09;;;29.37;34.07
63281;BME280;49406;51.044;3.766;2022-07-23T14:16:34;101978.53;;;29.30;34.72
63281;BME280;49406;51.044;3.766;2022-07-23T14:19:18;101979.39;;;29.49;34.44
63281;BME280;49406;51.044;3.766;2022-07-23T14:22:03;101979.95;;;29.51;34.30
63281;BME280;49406;51.044;3.766;2022-07-23T14:24:47;101976.34;;;29.45;34.72
63281;BME280;49406;51.044;3.766;2022-07-23T14:27:32;101979.37;;;29.35;34.38